createdAt,value
2022-12-02T00:01:06.463Z,49.87
2022-12-02T00:03:37.444Z,45.33
2022-12-02T00:06:11.927Z,44.97
2022-12-02T00:08:39.983Z,51.77
2022-12-02T00:11:24.704Z,50.60
2022-12-02T00:13:52.702Z,51.83
2022-12-02T00:16:22.621Z,51.47
2022-12-02T00:18:51.260Z,52.80
2022-12-02T00:21:21.495Z,53.87
2022-12-02T00:23:49.988Z,50.30
2022-12-02T00:26:18.474Z,46.77
2022-12-02T00:28:46.441Z,45.17
2022-12-02T00:31:14.505Z,52.03
2022-12-02T00:33:42.502Z,49.80
2022-12-02T00:36:10.622Z,42.50
2022-12-02T00:38:39.996Z,47.10
2022-12-02T00:41:08.012Z,47.10
2022-12-02T00:43:53.771Z,48.27
2022-12-02T00:46:34.826Z,50.03
2022-12-02T00:49:06.987Z,49.83
2022-12-02T00:51:35.985Z,49.53
2022-12-02T00:54:05.960Z,53.97
2022-12-02T00:56:34.708Z,51.43
2022-12-02T00:59:03.274Z,59.53
2022-12-02T01:01:31.835Z,57.27
2022-12-02T01:03:59.978Z,62.73
2022-12-02T01:06:27.974Z,59.93
2022-12-02T01:08:55.986Z,67.23
2022-12-02T01:11:25.330Z,64.50
2022-12-02T01:13:53.344Z,64.10
2022-12-02T01:16:21.479Z,68.53
2022-12-02T01:18:49.506Z,60.07
2022-12-02T01:21:17.551Z,64.10
2022-12-02T01:23:45.563Z,56.83
2022-12-02T01:26:13.568Z,58.70
2022-12-02T01:28:44.143Z,54.57
2022-12-02T01:31:12.211Z,58.57
2022-12-02T01:33:40.268Z,56.80
2022-12-02T01:36:09.197Z,57.10
2022-12-02T01:38:37.235Z,59.27
2022-12-02T01:41:06.088Z,56.60
2022-12-02T01:43:34.382Z,61.27
2022-12-02T01:46:03.955Z,54.77
2022-12-02T01:48:32.649Z,55.63
2022-12-02T01:51:00.704Z,51.70
2022-12-02T01:53:28.931Z,56.80
2022-12-02T01:55:57.296Z,52.43
2022-12-02T01:58:28.892Z,54.10
2022-12-02T02:00:57.733Z,57.23
2022-12-02T02:03:27.139Z,51.43
2022-12-02T02:05:55.631Z,61.97
2022-12-02T02:08:24.541Z,59.77
2022-12-02T02:10:52.504Z,53.03
2022-12-02T02:13:20.492Z,54.87
2022-12-02T02:15:48.553Z,55.27
2022-12-02T02:18:17.512Z,57.70
2022-12-02T02:20:46.860Z,56.53
2022-12-02T02:23:21.146Z,52.87
2022-12-02T02:25:51.022Z,54.47
2022-12-02T02:28:19.720Z,59.33
2022-12-02T02:30:48.081Z,54.97
2022-12-02T02:33:16.898Z,51.53
2022-12-02T02:35:46.339Z,61.97
2022-12-02T02:38:18.292Z,54.77
2022-12-02T02:40:48.392Z,55.37
2022-12-02T02:43:18.284Z,58.43
2022-12-02T02:45:46.989Z,53.77
2022-12-02T02:48:16.658Z,53.97
2022-12-02T02:50:46.898Z,56.37
2022-12-02T02:53:16.857Z,56.57
2022-12-02T02:55:44.890Z,56.80
2022-12-02T02:58:19.372Z,54.97
2022-12-02T03:00:50.231Z,54.10
2022-12-02T03:03:21.078Z,58.90
2022-12-02T03:05:50.391Z,56.13
2022-12-02T03:08:18.584Z,58.47
2022-12-02T03:10:46.715Z,58.70
2022-12-02T03:13:16.661Z,56.47
2022-12-02T03:15:44.872Z,51.50
2022-12-02T03:18:13.342Z,56.70
2022-12-02T03:20:41.400Z,60.37
2022-12-02T03:23:09.449Z,58.60
2022-12-02T03:25:38.195Z,57.83
2022-12-02T03:28:07.012Z,52.17
2022-12-02T03:30:36.558Z,57.67
2022-12-02T03:33:05.030Z,60.63
2022-12-02T03:35:33.100Z,59.23
2022-12-02T03:38:01.222Z,54.63
2022-12-02T03:40:29.535Z,59.17
2022-12-02T03:42:57.791Z,57.27
2022-12-02T03:45:26.068Z,59.57
2022-12-02T03:47:56.150Z,61.57
2022-12-02T03:50:24.307Z,61.90
2022-12-02T03:52:52.511Z,63.67
2022-12-02T03:55:20.611Z,69.83
2022-12-02T03:57:48.692Z,64.97
2022-12-02T04:00:17.311Z,67.20
2022-12-02T04:02:45.467Z,63.60
2022-12-02T04:05:14.912Z,61.00
2022-12-02T04:07:42.973Z,66.47
2022-12-02T04:10:12.032Z,68.37
2022-12-02T04:12:40.005Z,63.63
2022-12-02T04:15:08.742Z,66.13
2022-12-02T04:17:36.732Z,64.47
2022-12-02T04:20:06.157Z,64.63
2022-12-02T04:22:35.783Z,65.93
2022-12-02T04:25:05.094Z,67.87
2022-12-02T04:27:33.084Z,67.60
2022-12-02T04:30:01.105Z,69.00
2022-12-02T04:32:29.055Z,65.30
2022-12-02T04:34:57.052Z,64.70
2022-12-02T04:37:25.143Z,63.60
2022-12-02T04:39:54.494Z,72.10
2022-12-02T04:42:22.501Z,68.37
2022-12-02T04:44:50.797Z,66.90
2022-12-02T04:47:18.871Z,65.70
2022-12-02T04:49:46.922Z,64.37
2022-12-02T04:52:15.407Z,66.03
2022-12-02T04:54:43.440Z,62.33
2022-12-02T04:57:12.855Z,69.33
2022-12-02T04:59:40.842Z,69.00
2022-12-02T05:02:08.852Z,63.43
2022-12-02T05:04:40.025Z,66.63
2022-12-02T05:07:08.659Z,63.63
2022-12-02T05:09:36.777Z,67.70
2022-12-02T05:12:04.946Z,62.03
2022-12-02T05:14:34.382Z,62.53
2022-12-02T05:17:02.392Z,61.33
2022-12-02T05:19:30.363Z,67.83
2022-12-02T05:21:58.368Z,59.57
2022-12-02T05:24:26.350Z,62.30
2022-12-02T05:26:54.349Z,64.17
2022-12-02T05:29:22.314Z,59.80
2022-12-02T05:31:51.715Z,56.77
2022-12-02T05:34:19.860Z,57.83
2022-12-02T05:36:48.389Z,55.63
2022-12-02T05:39:16.402Z,56.80
2022-12-02T05:41:45.088Z,60.27
2022-12-02T05:44:22.363Z,57.00
2022-12-02T05:46:52.333Z,53.20
2022-12-02T05:49:22.591Z,65.73
2022-12-02T05:51:57.086Z,60.50
2022-12-02T05:54:26.025Z,57.80
2022-12-02T05:56:54.423Z,59.53
2022-12-02T05:59:24.018Z,60.50
2022-12-02T06:01:56.120Z,57.53
2022-12-02T06:04:27.183Z,57.13
2022-12-02T06:06:56.872Z,54.20
2022-12-02T06:09:26.878Z,54.87
2022-12-02T06:11:55.251Z,56.37
2022-12-02T06:14:25.694Z,59.70
2022-12-02T06:16:58.308Z,55.33
2022-12-02T06:19:34.218Z,56.87
2022-12-02T06:22:05.389Z,57.23
2022-12-02T06:24:35.715Z,60.20
2022-12-02T06:27:04.409Z,57.20
2022-12-02T06:29:34.061Z,54.50
2022-12-02T06:32:03.487Z,59.27
2022-12-02T06:34:36.351Z,60.77
2022-12-02T06:37:19.107Z,56.57
2022-12-02T06:40:19.892Z,54.40
2022-12-02T06:42:39.816Z,56.97
2022-12-02T06:45:15.961Z,57.47
2022-12-02T06:48:03.641Z,56.13
2022-12-02T06:50:41.896Z,56.57
2022-12-02T06:53:40.865Z,58.37
2022-12-02T06:56:20.565Z,53.47
2022-12-02T06:58:54.988Z,55.17
2022-12-02T07:01:27.488Z,55.07
2022-12-02T07:04:29.639Z,57.47
2022-12-02T07:07:00.544Z,52.50
2022-12-02T07:09:39.249Z,53.03
2022-12-02T07:12:15.873Z,59.00
2022-12-02T07:14:47.632Z,55.37
2022-12-02T07:17:22.315Z,54.83
2022-12-02T07:19:57.341Z,55.40
2022-12-02T07:22:32.805Z,55.83
2022-12-02T07:25:21.675Z,51.93
2022-12-02T07:27:52.213Z,54.00
2022-12-02T07:30:24.741Z,50.23
2022-12-02T07:32:53.083Z,51.97
2022-12-02T07:35:22.447Z,53.73
2022-12-02T07:37:50.968Z,50.03
2022-12-02T07:40:20.332Z,55.63
2022-12-02T07:42:48.830Z,53.37
2022-12-02T07:45:18.987Z,51.73
2022-12-02T07:47:47.738Z,54.03
2022-12-02T07:50:17.230Z,51.50
2022-12-02T07:52:46.590Z,49.83
2022-12-02T07:55:14.654Z,54.37
2022-12-02T07:57:42.622Z,51.00
2022-12-02T08:00:11.706Z,48.17
2022-12-02T08:02:40.126Z,48.83
2022-12-02T08:05:08.962Z,54.67
2022-12-02T08:07:37.025Z,51.63
2022-12-02T08:10:08.009Z,53.17
2022-12-02T08:12:36.181Z,52.87
2022-12-02T08:15:04.467Z,52.50
2022-12-02T08:17:32.505Z,53.17
2022-12-02T08:20:00.516Z,52.93
2022-12-02T08:22:30.235Z,53.53
2022-12-02T08:24:58.206Z,50.93
2022-12-02T08:27:28.166Z,47.80
2022-12-02T08:29:56.179Z,49.70
2022-12-02T08:32:24.478Z,54.93
2022-12-02T08:34:52.751Z,52.50
2022-12-02T08:37:21.185Z,51.57
2022-12-02T08:39:49.179Z,51.80
2022-12-02T08:42:17.158Z,48.60
2022-12-02T08:44:46.552Z,52.80
2022-12-02T08:47:14.546Z,57.40
2022-12-02T08:49:42.988Z,50.47
2022-12-02T08:52:10.994Z,54.60
2022-12-02T08:54:40.966Z,55.97
2022-12-02T08:57:08.985Z,53.10
2022-12-02T08:59:37.042Z,52.90
2022-12-02T09:02:06.678Z,52.67
2022-12-02T09:04:34.799Z,55.27
2022-12-02T09:07:02.835Z,54.73
2022-12-02T09:09:30.815Z,51.63
2022-12-02T09:11:58.815Z,52.13
2022-12-02T09:14:26.931Z,49.33
2022-12-02T09:16:55.021Z,51.43
2022-12-02T09:19:24.407Z,52.50
2022-12-02T09:21:52.412Z,51.23
2022-12-02T09:24:20.436Z,53.87
2022-12-02T09:26:48.407Z,56.10
2022-12-02T09:29:16.509Z,53.17
2022-12-02T09:31:44.531Z,52.90
2022-12-02T09:34:12.686Z,51.37
2022-12-02T09:36:42.093Z,52.80
2022-12-02T09:39:10.168Z,53.47
2022-12-02T09:41:38.630Z,51.30
2022-12-02T09:44:07.370Z,52.70
2022-12-02T09:46:35.863Z,52.40
2022-12-02T09:49:04.088Z,51.07
2022-12-02T09:51:34.088Z,51.20
2022-12-02T09:54:04.745Z,61.30
2022-12-02T09:56:32.893Z,52.27
2022-12-02T09:59:00.878Z,56.70
2022-12-02T10:01:29.179Z,53.77
2022-12-02T10:03:57.239Z,57.23
2022-12-02T10:06:27.163Z,60.60
2022-12-02T10:08:57.036Z,58.40
2022-12-02T10:11:28.854Z,55.50
2022-12-02T10:13:57.861Z,54.80
2022-12-02T10:16:28.428Z,56.23
2022-12-02T10:19:01.507Z,57.67
2022-12-02T10:21:29.608Z,54.57
2022-12-02T10:23:59.983Z,56.23
2022-12-02T10:26:45.267Z,54.60
2022-12-02T10:29:18.521Z,57.50
2022-12-02T10:31:58.790Z,52.77
2022-12-02T10:34:28.624Z,53.27
2022-12-02T10:36:57.080Z,53.73
2022-12-02T10:39:31.297Z,50.17
2022-12-02T10:42:16.986Z,58.30
2022-12-02T10:44:46.935Z,51.33
2022-12-02T10:47:25.510Z,53.93
2022-12-02T10:49:55.189Z,53.50
2022-12-02T10:52:27.365Z,52.67
2022-12-02T10:54:57.858Z,56.83
2022-12-02T10:57:29.590Z,54.43
2022-12-02T10:59:59.375Z,56.23
2022-12-02T11:02:33.337Z,51.40
2022-12-02T11:05:07.092Z,60.83
2022-12-02T11:07:35.120Z,56.43
2022-12-02T11:10:03.189Z,53.47
2022-12-02T11:12:38.778Z,58.10
2022-12-02T11:15:23.259Z,58.10
2022-12-02T11:17:52.979Z,53.20
2022-12-02T11:20:32.822Z,58.33
2022-12-02T11:23:25.464Z,65.53
2022-12-02T11:26:02.822Z,70.67
2022-12-02T11:29:08.655Z,59.17
2022-12-02T11:31:36.777Z,58.53
2022-12-02T11:34:20.500Z,59.47
2022-12-02T11:37:27.159Z,55.93
2022-12-02T11:39:58.081Z,55.17
2022-12-02T11:42:27.743Z,55.93
2022-12-02T11:45:11.277Z,60.10
2022-12-02T11:47:40.125Z,50.77
2022-12-02T11:50:23.862Z,60.80
2022-12-02T11:52:54.396Z,58.00
2022-12-02T11:55:26.897Z,58.10
2022-12-02T11:57:57.225Z,53.70
2022-12-02T12:00:33.996Z,58.67
2022-12-02T12:03:14.920Z,55.47
2022-12-02T12:05:44.720Z,55.20
2022-12-02T12:08:26.638Z,57.43
2022-12-02T12:11:23.660Z,51.87
2022-12-02T12:14:04.664Z,55.80
2022-12-02T12:16:34.154Z,59.50
2022-12-02T12:19:04.567Z,56.17
2022-12-02T12:21:42.506Z,52.70
2022-12-02T12:24:33.043Z,59.03
2022-12-02T12:27:14.301Z,59.83
2022-12-02T12:29:42.795Z,54.33
2022-12-02T12:32:11.673Z,54.93
2022-12-02T12:34:39.953Z,56.90
2022-12-02T12:37:07.979Z,55.97
2022-12-02T12:39:35.958Z,53.73
2022-12-02T12:42:03.927Z,57.80
2022-12-02T12:44:33.458Z,57.10
2022-12-02T12:47:03.297Z,58.97
2022-12-02T12:49:31.522Z,64.17
2022-12-02T12:51:59.670Z,64.00
2022-12-02T12:54:28.027Z,59.03
2022-12-02T12:56:56.216Z,68.83
2022-12-02T12:59:24.307Z,67.00
2022-12-02T13:01:53.870Z,63.83
2022-12-02T13:04:22.018Z,61.63
2022-12-02T13:06:50.153Z,58.20
2022-12-02T13:09:18.204Z,56.60
2022-12-02T13:11:46.961Z,52.77
2022-12-02T13:14:15.024Z,50.77
2022-12-02T13:16:43.615Z,60.00
2022-12-02T13:19:13.344Z,64.73
2022-12-02T13:21:43.392Z,59.90
2022-12-02T13:24:11.746Z,50.47
2022-12-02T13:26:39.783Z,56.53
2022-12-02T13:29:07.772Z,51.93
2022-12-02T13:31:35.838Z,52.93
2022-12-02T13:34:03.940Z,51.27
2022-12-02T13:36:33.433Z,51.23
2022-12-02T13:39:06.236Z,51.60
2022-12-02T13:41:34.926Z,49.47
2022-12-02T13:44:03.027Z,48.97
2022-12-02T13:46:31.342Z,49.50
2022-12-02T13:48:59.605Z,50.70
2022-12-02T13:51:31.068Z,49.67
2022-12-02T13:54:01.395Z,51.50
2022-12-02T13:56:29.377Z,52.93
2022-12-02T13:58:57.354Z,46.33
2022-12-02T14:01:25.486Z,52.27
2022-12-02T14:03:53.696Z,52.93
2022-12-02T14:06:21.917Z,52.33
2022-12-02T14:08:49.896Z,50.57
2022-12-02T14:11:21.747Z,48.17
2022-12-02T14:13:50.457Z,48.27
2022-12-02T14:16:18.571Z,48.57
2022-12-02T14:18:46.662Z,48.67
2022-12-02T14:21:14.639Z,48.10
2022-12-02T14:23:42.725Z,46.23
2022-12-02T14:26:10.720Z,45.73
2022-12-02T14:28:40.069Z,44.80
2022-12-02T14:31:18.829Z,42.57
2022-12-02T14:34:10.597Z,39.53
2022-12-02T14:36:39.058Z,42.13
2022-12-02T14:39:07.321Z,44.70
2022-12-02T14:41:35.321Z,41.37
2022-12-02T14:44:04.730Z,45.77
2022-12-02T14:46:32.878Z,43.03
2022-12-02T14:49:30.839Z,40.83
2022-12-02T14:51:49.066Z,38.73
2022-12-02T14:54:17.109Z,43.67
2022-12-02T14:56:45.094Z,38.03
2022-12-02T14:59:15.217Z,41.93
2022-12-02T15:01:43.520Z,38.00
2022-12-02T15:04:11.564Z,37.70
2022-12-02T15:06:39.525Z,39.47
2022-12-02T15:09:07.871Z,40.27
2022-12-02T15:11:35.855Z,38.10
2022-12-02T15:14:03.827Z,38.97
2022-12-02T15:16:33.290Z,41.30
2022-12-02T15:19:01.428Z,37.40
2022-12-02T15:21:29.514Z,41.33
2022-12-02T15:23:57.502Z,41.37
2022-12-02T15:26:25.695Z,37.63
2022-12-02T15:28:53.655Z,39.10
2022-12-02T15:31:21.755Z,39.43
2022-12-02T15:33:51.102Z,38.57
2022-12-02T15:36:19.076Z,39.10
2022-12-02T15:38:47.035Z,36.80
2022-12-02T15:41:15.050Z,38.03
2022-12-02T15:43:45.234Z,39.87
2022-12-02T15:46:16.685Z,38.47
2022-12-02T15:48:44.756Z,39.73
2022-12-02T15:51:14.271Z,42.30
2022-12-02T15:53:44.264Z,34.23
2022-12-02T15:56:12.273Z,40.87
2022-12-02T15:58:40.331Z,38.00
2022-12-02T16:01:08.386Z,37.23
2022-12-02T16:03:36.417Z,35.23
2022-12-02T16:06:04.538Z,38.67
2022-12-02T16:08:34.176Z,34.77
2022-12-02T16:11:02.242Z,35.50
2022-12-02T16:13:30.228Z,33.50
2022-12-02T16:15:58.235Z,34.37
2022-12-02T16:18:26.901Z,32.63
2022-12-02T16:20:55.909Z,31.23
2022-12-02T16:23:24.424Z,31.47
2022-12-02T16:25:53.901Z,34.80
2022-12-02T16:28:21.919Z,33.17
2022-12-02T16:30:49.901Z,32.20
2022-12-02T16:33:17.864Z,32.77
2022-12-02T16:35:45.845Z,31.00
2022-12-02T16:38:13.893Z,31.77
2022-12-02T16:40:41.887Z,31.43
2022-12-02T16:43:11.237Z,31.20
2022-12-02T16:45:39.272Z,31.77
2022-12-02T16:48:09.113Z,33.07
2022-12-02T16:50:37.187Z,38.30
2022-12-02T16:53:05.749Z,53.70
2022-12-02T16:55:33.726Z,53.87
2022-12-02T16:58:01.684Z,57.87
2022-12-02T17:00:31.037Z,100.13
2022-12-02T17:02:59.142Z,36.67
2022-12-02T17:05:27.213Z,35.30
2022-12-02T17:07:55.288Z,35.13
2022-12-02T17:10:23.290Z,34.43
2022-12-02T17:12:51.263Z,34.03
2022-12-02T17:15:19.262Z,33.67
2022-12-02T17:17:48.770Z,30.47
2022-12-02T17:20:17.181Z,31.40
2022-12-02T17:22:45.203Z,30.87
2022-12-02T17:25:13.717Z,31.67
2022-12-02T17:27:41.986Z,28.77
2022-12-02T17:30:11.485Z,29.87
2022-12-02T17:32:39.468Z,30.17
2022-12-02T17:35:09.663Z,30.30
2022-12-02T17:37:37.647Z,31.07
2022-12-02T17:40:06.297Z,29.93
2022-12-02T17:42:34.269Z,28.70
2022-12-02T17:45:02.274Z,27.10
2022-12-02T17:47:30.212Z,27.60
2022-12-02T17:49:58.209Z,29.53
2022-12-02T17:52:27.540Z,30.47
2022-12-02T17:54:55.852Z,31.23
2022-12-02T17:57:24.032Z,27.83
2022-12-02T17:59:52.019Z,28.70
2022-12-02T18:02:20.186Z,26.97
2022-12-02T18:04:48.320Z,31.13
2022-12-02T18:07:16.351Z,30.07
2022-12-02T18:09:45.751Z,29.10
2022-12-02T18:12:13.738Z,30.73
2022-12-02T18:14:41.726Z,29.17
2022-12-02T18:17:09.797Z,33.63
2022-12-02T18:19:37.817Z,30.57
2022-12-02T18:22:05.804Z,31.07
2022-12-02T18:24:33.784Z,29.20
2022-12-02T18:27:03.085Z,27.77
2022-12-02T18:29:40.101Z,27.00
2022-12-02T18:32:08.060Z,27.47
2022-12-02T18:34:35.988Z,29.23
2022-12-02T18:37:03.957Z,27.93
2022-12-02T18:39:31.879Z,27.50
2022-12-02T18:41:59.914Z,49.00
2022-12-02T18:44:29.263Z,44.97
2022-12-02T18:46:57.277Z,30.50
2022-12-02T18:49:25.854Z,54.23
2022-12-02T18:51:54.276Z,43.67
2022-12-02T18:54:22.499Z,50.03
2022-12-02T18:56:50.870Z,36.37
2022-12-02T18:59:18.885Z,29.77
2022-12-02T19:01:48.300Z,28.20
2022-12-02T19:04:16.387Z,30.20
2022-12-02T19:06:44.850Z,32.87
2022-12-02T19:09:12.845Z,31.90
2022-12-02T19:11:40.880Z,30.13
2022-12-02T19:14:08.862Z,29.80
2022-12-02T19:16:36.956Z,32.47
2022-12-02T19:19:06.378Z,29.13
2022-12-02T19:21:34.370Z,28.53
2022-12-02T19:24:02.350Z,28.80
2022-12-02T19:26:30.363Z,32.87
2022-12-02T19:28:58.812Z,34.20
2022-12-02T19:31:26.818Z,33.30
2022-12-02T19:33:54.866Z,30.27
2022-12-02T19:36:24.222Z,31.97
2022-12-02T19:38:52.218Z,31.60
2022-12-02T19:41:20.166Z,30.17
2022-12-02T19:43:48.298Z,30.87
2022-12-02T19:46:16.312Z,30.70
2022-12-02T19:48:44.402Z,30.60
2022-12-02T19:51:12.384Z,28.63
2022-12-02T19:53:41.738Z,29.40
2022-12-02T19:56:09.758Z,29.33
2022-12-02T19:58:37.737Z,32.43
2022-12-02T20:01:05.881Z,27.47
2022-12-02T20:03:34.027Z,28.97
2022-12-02T20:06:03.046Z,28.03
2022-12-02T20:08:31.356Z,26.30
2022-12-02T20:11:00.967Z,26.20
2022-12-02T20:13:28.981Z,23.00
2022-12-02T20:15:58.791Z,25.20
2022-12-02T20:18:27.288Z,25.17
2022-12-02T20:20:55.271Z,23.73
2022-12-02T20:23:23.307Z,22.53
2022-12-02T20:25:51.329Z,43.93
2022-12-02T20:28:20.747Z,24.57
2022-12-02T20:30:48.708Z,20.57
2022-12-02T20:33:16.821Z,20.73
2022-12-02T20:35:44.811Z,21.20
2022-12-02T20:38:12.782Z,20.93
2022-12-02T20:40:40.769Z,20.20
2022-12-02T20:43:08.712Z,23.40
2022-12-02T20:45:38.051Z,19.03
2022-12-02T20:48:06.202Z,20.90
2022-12-02T20:50:34.260Z,17.30
2022-12-02T20:53:02.247Z,17.10
2022-12-02T20:55:30.247Z,17.97
2022-12-02T20:57:58.219Z,17.73
2022-12-02T21:00:26.281Z,19.90
2022-12-02T21:02:55.725Z,18.97
2022-12-02T21:05:23.725Z,17.00
2022-12-02T21:07:51.848Z,18.60
2022-12-02T21:10:20.163Z,17.87
2022-12-02T21:12:48.263Z,18.57
2022-12-02T21:15:17.137Z,18.13
2022-12-02T21:17:45.326Z,19.50
2022-12-02T21:20:19.130Z,18.07
2022-12-02T21:22:47.680Z,19.93
2022-12-02T21:25:16.158Z,20.40
2022-12-02T21:27:44.462Z,17.00
2022-12-02T21:30:13.878Z,18.00
2022-12-02T21:32:41.998Z,17.20
2022-12-02T21:35:10.393Z,17.83
2022-12-02T21:37:39.877Z,19.37
2022-12-02T21:40:09.339Z,18.30
2022-12-02T21:42:37.315Z,18.03
2022-12-02T21:45:06.043Z,17.83
2022-12-02T21:47:34.058Z,18.73
2022-12-02T21:50:02.072Z,16.27
2022-12-02T21:52:30.045Z,18.17
2022-12-02T21:54:59.471Z,17.57
2022-12-02T21:57:27.440Z,19.83
2022-12-02T21:59:55.414Z,20.07
2022-12-02T22:02:23.477Z,16.60
2022-12-02T22:04:51.774Z,18.17
2022-12-02T22:07:37.747Z,16.80
2022-12-02T22:10:09.559Z,16.97
2022-12-02T22:12:37.570Z,17.20
2022-12-02T22:15:06.371Z,16.93
2022-12-02T22:17:34.434Z,17.67
2022-12-02T22:20:02.575Z,18.47
2022-12-02T22:22:30.586Z,20.40
2022-12-02T22:24:58.589Z,17.83
2022-12-02T22:27:27.940Z,19.17
2022-12-02T22:29:55.946Z,16.23
2022-12-02T22:32:24.038Z,18.37
2022-12-02T22:34:53.390Z,16.73
2022-12-02T22:37:21.526Z,16.17
2022-12-02T22:39:49.488Z,18.13
2022-12-02T22:42:17.463Z,16.43
2022-12-02T22:44:46.806Z,16.33
2022-12-02T22:47:14.755Z,17.43
2022-12-02T22:49:42.876Z,18.07
2022-12-02T22:52:10.820Z,17.67
2022-12-02T22:54:38.798Z,19.47
2022-12-02T22:57:06.764Z,17.20
2022-12-02T22:59:34.780Z,17.37
2022-12-02T23:02:04.143Z,17.50
2022-12-02T23:04:32.517Z,15.90
2022-12-02T23:07:00.478Z,17.93
2022-12-02T23:09:29.418Z,17.43
2022-12-02T23:11:57.421Z,20.27
2022-12-02T23:14:25.417Z,18.03
2022-12-02T23:16:53.637Z,18.50
2022-12-02T23:19:23.016Z,16.60
2022-12-02T23:21:51.039Z,16.63
2022-12-02T23:24:19.023Z,17.60
2022-12-02T23:26:47.011Z,16.10
2022-12-02T23:29:14.986Z,18.07
2022-12-02T23:31:42.987Z,17.70
2022-12-02T23:34:12.910Z,17.67
2022-12-02T23:36:42.278Z,19.70
2022-12-02T23:39:10.249Z,17.40
2022-12-02T23:41:38.257Z,18.47
2022-12-02T23:44:06.355Z,17.53
2022-12-02T23:46:34.617Z,19.37
2022-12-02T23:49:02.690Z,16.47
2022-12-02T23:51:30.703Z,18.40
2022-12-02T23:54:00.084Z,17.33
2022-12-02T23:56:28.067Z,18.57
2022-12-02T23:58:56.055Z,18.53
